createdAt,value
2017-12-26T00:01:00.186Z,3.30
2017-12-26T00:04:10.270Z,3.30
2017-12-26T00:07:20.093Z,3.30
2017-12-26T00:10:31.457Z,3.70
2017-12-26T00:13:41.666Z,3.60
2017-12-26T00:16:51.449Z,3.70
2017-12-26T00:20:01.998Z,3.80
2017-12-26T00:23:12.296Z,3.70
2017-12-26T00:26:22.904Z,3.80
2017-12-26T00:29:33.032Z,3.80
2017-12-26T00:32:43.643Z,3.80
2017-12-26T00:35:54.854Z,3.90
2017-12-26T00:39:04.229Z,3.80
2017-12-26T00:42:14.580Z,3.80
2017-12-26T00:45:24.432Z,3.80
2017-12-26T00:48:34.209Z,3.90
2017-12-26T00:51:44.127Z,4.00
2017-12-26T00:54:55.646Z,4.00
2017-12-26T00:58:06.961Z,3.90
2017-12-26T01:01:17.932Z,3.90
2017-12-26T01:04:27.961Z,3.90
2017-12-26T01:07:38.576Z,3.80
2017-12-26T01:10:49.436Z,4.10
2017-12-26T01:13:59.649Z,4.10
2017-12-26T01:17:10.510Z,4.20
2017-12-26T01:20:20.893Z,4.20
2017-12-26T01:23:31.737Z,4.40
2017-12-26T01:26:42.683Z,4.30
2017-12-26T01:29:52.748Z,4.40
2017-12-26T01:33:02.942Z,4.40
2017-12-26T01:36:13.361Z,4.50
2017-12-26T01:39:24.500Z,4.40
2017-12-26T01:42:34.614Z,4.40
2017-12-26T01:45:46.005Z,4.40
2017-12-26T01:48:55.553Z,4.40
2017-12-26T01:52:05.572Z,4.60
2017-12-26T01:55:15.585Z,4.80
2017-12-26T01:58:25.330Z,4.90
2017-12-26T02:01:36.198Z,5.00
2017-12-26T02:04:46.944Z,4.80
2017-12-26T02:07:56.990Z,4.80
2017-12-26T02:11:07.695Z,4.80
2017-12-26T02:14:18.349Z,4.80
2017-12-26T02:17:28.563Z,4.80
2017-12-26T02:20:39.147Z,4.80
2017-12-26T02:23:49.994Z,4.90
2017-12-26T02:27:00.260Z,4.90
2017-12-26T02:30:10.085Z,4.70
2017-12-26T02:33:19.901Z,4.70
2017-12-26T02:36:29.712Z,4.80
2017-12-26T02:39:39.799Z,4.80
2017-12-26T02:42:49.661Z,5.00
2017-12-26T02:45:59.820Z,5.00
2017-12-26T02:49:10.551Z,5.00
2017-12-26T02:52:20.287Z,5.00
2017-12-26T02:55:30.922Z,4.90
2017-12-26T02:58:41.020Z,4.90
2017-12-26T03:01:50.814Z,4.90
2017-12-26T03:05:02.119Z,4.80
2017-12-26T03:08:12.067Z,4.80
2017-12-26T03:11:22.013Z,4.90
2017-12-26T03:14:31.889Z,5.20
2017-12-26T03:17:41.723Z,5.10
2017-12-26T03:20:51.710Z,5.20
2017-12-26T03:24:01.877Z,5.30
2017-12-26T03:27:12.244Z,5.20
2017-12-26T03:30:22.274Z,5.10
2017-12-26T03:33:32.286Z,5.30
2017-12-26T03:36:42.312Z,5.20
2017-12-26T03:39:52.333Z,5.10
2017-12-26T03:43:03.287Z,5.10
2017-12-26T03:46:13.406Z,5.10
2017-12-26T03:49:23.553Z,5.10
2017-12-26T03:52:34.315Z,5.10
2017-12-26T03:55:44.714Z,5.10
2017-12-26T03:58:55.402Z,5.00
2017-12-26T04:02:06.506Z,5.10
2017-12-26T04:05:16.938Z,5.10
2017-12-26T04:08:27.545Z,5.20
2017-12-26T04:11:37.824Z,5.20
2017-12-26T04:14:47.569Z,5.10
2017-12-26T04:17:57.407Z,5.00
2017-12-26T04:21:07.528Z,5.00
2017-12-26T04:24:17.997Z,4.90
2017-12-26T04:27:28.143Z,4.90
2017-12-26T04:30:39.112Z,5.00
2017-12-26T04:33:50.051Z,5.00
2017-12-26T04:37:00.507Z,5.00
2017-12-26T04:40:10.190Z,5.00
2017-12-26T04:43:20.866Z,4.90
2017-12-26T04:46:31.060Z,4.80
2017-12-26T04:49:41.084Z,4.80
2017-12-26T04:52:51.422Z,4.80
2017-12-26T04:56:01.648Z,4.80
2017-12-26T04:59:11.442Z,4.80
2017-12-26T05:02:21.496Z,4.80
2017-12-26T05:05:31.324Z,4.80
2017-12-26T05:08:41.403Z,4.80
2017-12-26T05:11:51.991Z,4.80
2017-12-26T05:15:02.082Z,4.80
2017-12-26T05:18:11.730Z,4.90
2017-12-26T05:21:22.420Z,4.90
2017-12-26T05:24:33.247Z,5.00
2017-12-26T05:27:43.481Z,5.00
2017-12-26T05:30:53.240Z,5.10
2017-12-26T05:34:03.077Z,5.20
2017-12-26T05:37:13.062Z,5.20
2017-12-26T05:40:23.344Z,5.20
2017-12-26T05:43:33.701Z,5.20
2017-12-26T05:46:43.655Z,5.30
2017-12-26T05:49:53.493Z,5.30
2017-12-26T05:53:03.515Z,5.30
2017-12-26T05:56:13.864Z,5.50
2017-12-26T05:59:23.655Z,5.60
2017-12-26T06:02:34.650Z,5.70
2017-12-26T06:05:46.708Z,5.60
2017-12-26T06:08:57.374Z,5.80
2017-12-26T06:12:07.023Z,5.80
2017-12-26T06:15:17.346Z,5.90
2017-12-26T06:18:27.224Z,5.90
2017-12-26T06:21:37.210Z,5.90
2017-12-26T06:24:48.177Z,6.10
2017-12-26T06:27:58.952Z,6.10
2017-12-26T06:31:09.056Z,6.10
2017-12-26T06:34:19.443Z,6.00
2017-12-26T06:37:29.183Z,6.00
2017-12-26T06:40:39.883Z,6.00
2017-12-26T06:43:49.867Z,6.00
2017-12-26T06:47:01.430Z,6.10
2017-12-26T06:50:11.424Z,6.00
2017-12-26T06:53:22.235Z,5.90
2017-12-26T06:56:33.302Z,6.00
2017-12-26T06:59:43.999Z,6.00
2017-12-26T07:02:54.754Z,6.00
2017-12-26T07:06:05.498Z,6.00
2017-12-26T07:09:15.522Z,6.00
2017-12-26T07:12:25.301Z,5.90
2017-12-26T07:15:35.291Z,5.90
2017-12-26T07:18:45.082Z,5.90
2017-12-26T07:22:01.376Z,6.00
2017-12-26T07:25:11.339Z,6.10
2017-12-26T07:28:21.056Z,6.10
2017-12-26T07:31:31.229Z,5.90
2017-12-26T07:34:41.035Z,6.00
2017-12-26T07:37:51.774Z,5.90
2017-12-26T07:41:01.973Z,5.90
2017-12-26T07:44:12.674Z,5.80
2017-12-26T07:47:22.639Z,6.10
2017-12-26T07:50:32.554Z,6.00
2017-12-26T07:53:43.557Z,6.10
2017-12-26T07:56:53.558Z,6.00
2017-12-26T08:00:03.640Z,6.10
2017-12-26T08:03:14.431Z,6.10
2017-12-26T08:06:25.384Z,6.10
2017-12-26T08:09:35.679Z,6.00
2017-12-26T08:12:48.120Z,6.00
2017-12-26T08:15:58.979Z,6.00
2017-12-26T08:19:12.789Z,5.90
2017-12-26T08:22:25.206Z,5.90
2017-12-26T08:25:37.185Z,5.90
2017-12-26T08:28:48.855Z,5.90
2017-12-26T08:31:59.017Z,5.90
2017-12-26T08:35:09.479Z,5.90
2017-12-26T08:38:23.186Z,5.90
2017-12-26T08:41:33.208Z,5.90
2017-12-26T08:44:43.322Z,5.90
2017-12-26T08:47:53.904Z,5.90
2017-12-26T08:51:05.320Z,6.00
2017-12-26T08:54:17.475Z,6.00
2017-12-26T08:57:29.280Z,6.10
2017-12-26T09:00:40.514Z,6.20
2017-12-26T09:03:50.860Z,6.20
2017-12-26T09:07:01.577Z,6.30
2017-12-26T09:10:12.339Z,6.30
2017-12-26T09:13:25.424Z,6.40
2017-12-26T09:16:38.259Z,6.60
2017-12-26T09:19:49.478Z,6.70
2017-12-26T09:22:59.891Z,6.70
2017-12-26T09:26:09.837Z,6.80
2017-12-26T09:29:20.606Z,6.90
2017-12-26T09:32:30.841Z,7.00
2017-12-26T09:35:41.600Z,7.10
2017-12-26T09:38:51.355Z,7.20
2017-12-26T09:42:01.341Z,7.20
2017-12-26T09:45:12.832Z,7.30
2017-12-26T09:48:23.377Z,7.40
2017-12-26T09:51:34.138Z,7.50
2017-12-26T09:54:45.094Z,7.50
2017-12-26T09:57:55.631Z,7.50
2017-12-26T10:01:07.453Z,7.60
2017-12-26T10:04:18.074Z,7.70
2017-12-26T10:07:28.301Z,7.60
2017-12-26T10:10:38.813Z,7.80
2017-12-26T10:13:48.946Z,7.80
2017-12-26T10:16:58.802Z,7.90
2017-12-26T10:20:10.744Z,7.90
2017-12-26T10:23:21.498Z,8.00
2017-12-26T10:26:32.298Z,8.00
2017-12-26T10:29:43.291Z,8.00
2017-12-26T10:32:53.507Z,8.20
2017-12-26T10:36:03.339Z,8.20
2017-12-26T10:39:13.899Z,8.30
2017-12-26T10:42:24.755Z,8.30
2017-12-26T10:45:35.615Z,8.30
2017-12-26T10:48:46.282Z,8.40
2017-12-26T10:51:57.221Z,8.50
2017-12-26T10:55:08.037Z,8.50
2017-12-26T10:58:18.339Z,8.50
2017-12-26T11:01:28.479Z,8.50
2017-12-26T11:04:39.157Z,8.60
2017-12-26T11:07:49.743Z,8.50
2017-12-26T11:11:01.022Z,8.70
2017-12-26T11:14:11.435Z,8.60
2017-12-26T11:17:23.203Z,8.60
2017-12-26T11:20:33.275Z,8.60
2017-12-26T11:23:43.400Z,8.70
2017-12-26T11:26:54.959Z,8.70
2017-12-26T11:30:05.262Z,8.70
2017-12-26T11:33:16.150Z,8.80
2017-12-26T11:36:28.675Z,8.90
2017-12-26T11:39:39.426Z,9.00
2017-12-26T11:42:49.534Z,9.00
2017-12-26T11:45:59.862Z,9.00
2017-12-26T11:49:10.144Z,8.90
2017-12-26T11:52:22.185Z,9.00
2017-12-26T11:55:32.968Z,9.00
2017-12-26T11:58:43.152Z,9.00
2017-12-26T12:01:53.895Z,9.00
2017-12-26T12:05:03.856Z,9.00
2017-12-26T12:08:14.554Z,9.10
2017-12-26T12:11:25.287Z,9.10
2017-12-26T12:14:35.130Z,9.00
2017-12-26T12:17:45.530Z,9.00
2017-12-26T12:20:55.847Z,8.90
2017-12-26T12:24:06.414Z,8.80
2017-12-26T12:27:17.546Z,8.80
2017-12-26T12:30:27.550Z,8.70
2017-12-26T12:33:37.883Z,8.70
2017-12-26T12:36:49.290Z,8.70
2017-12-26T12:40:00.031Z,8.70
2017-12-26T12:43:10.116Z,8.80
2017-12-26T12:46:19.907Z,8.80
2017-12-26T12:49:29.695Z,8.80
2017-12-26T12:52:40.482Z,8.80
2017-12-26T12:55:50.847Z,8.80
2017-12-26T12:59:01.234Z,8.90
2017-12-26T13:02:11.702Z,8.80
2017-12-26T13:05:23.082Z,8.80
2017-12-26T13:08:33.502Z,8.80
2017-12-26T13:11:43.295Z,8.80
2017-12-26T13:14:53.438Z,8.80
2017-12-26T13:18:05.012Z,8.80
2017-12-26T13:21:15.626Z,8.80
2017-12-26T13:24:26.581Z,8.70
2017-12-26T13:27:37.779Z,8.70
2017-12-26T13:30:48.014Z,8.70
2017-12-26T13:33:57.863Z,8.60
2017-12-26T13:37:07.804Z,8.40
2017-12-26T13:40:18.943Z,8.30
2017-12-26T13:43:30.253Z,8.30
2017-12-26T13:46:40.949Z,8.20
2017-12-26T13:49:50.979Z,8.20
2017-12-26T13:53:02.424Z,8.10
2017-12-26T13:56:12.264Z,8.00
2017-12-26T13:59:23.099Z,8.00
2017-12-26T14:02:33.166Z,8.00
2017-12-26T14:05:43.247Z,8.00
2017-12-26T14:08:54.157Z,7.90
2017-12-26T14:12:04.376Z,7.90
2017-12-26T14:15:14.386Z,7.90
2017-12-26T14:18:24.267Z,7.80
2017-12-26T14:21:34.407Z,7.80
2017-12-26T14:24:44.505Z,7.70
2017-12-26T14:27:54.464Z,7.70
2017-12-26T14:31:04.898Z,7.70
2017-12-26T14:34:15.607Z,7.60
2017-12-26T14:37:25.953Z,7.60
2017-12-26T14:40:35.671Z,7.60
2017-12-26T14:43:46.640Z,7.60
2017-12-26T14:46:56.782Z,7.60
2017-12-26T14:50:06.546Z,7.60
2017-12-26T14:53:16.340Z,7.60
2017-12-26T14:56:26.142Z,7.60
2017-12-26T14:59:36.925Z,7.60
2017-12-26T15:02:47.449Z,7.70
2017-12-26T15:05:58.139Z,7.60
2017-12-26T15:09:07.941Z,7.60
2017-12-26T15:12:17.703Z,7.60
2017-12-26T15:15:27.624Z,7.60
2017-12-26T15:18:38.322Z,7.60
2017-12-26T15:21:48.237Z,7.60
2017-12-26T15:24:58.783Z,7.60
2017-12-26T15:28:08.463Z,7.60
2017-12-26T15:31:18.325Z,7.60
2017-12-26T15:34:28.130Z,7.50
2017-12-26T15:37:38.922Z,7.40
2017-12-26T15:40:49.047Z,7.40
2017-12-26T15:43:59.120Z,7.40
2017-12-26T15:47:09.478Z,7.30
2017-12-26T15:50:20.134Z,7.20
2017-12-26T15:53:30.314Z,7.10
2017-12-26T15:56:40.559Z,7.10
2017-12-26T15:59:51.229Z,7.00
2017-12-26T16:03:01.968Z,6.80
2017-12-26T16:06:12.209Z,6.90
2017-12-26T16:09:22.978Z,6.60
2017-12-26T16:12:33.431Z,6.60
2017-12-26T16:15:43.156Z,6.40
2017-12-26T16:18:53.114Z,6.30
2017-12-26T16:22:03.881Z,6.20
2017-12-26T16:25:14.656Z,6.10
2017-12-26T16:28:25.405Z,5.90
2017-12-26T16:31:37.247Z,5.90
2017-12-26T16:34:48.009Z,5.90
2017-12-26T16:37:58.824Z,5.90
2017-12-26T16:41:09.520Z,5.80
2017-12-26T16:44:19.766Z,5.80
2017-12-26T16:47:30.320Z,5.70
2017-12-26T16:50:40.995Z,5.70
2017-12-26T16:53:50.957Z,5.70
2017-12-26T16:57:01.651Z,5.60
2017-12-26T17:00:11.739Z,5.60
2017-12-26T17:03:21.722Z,5.60
2017-12-26T17:06:32.280Z,5.60
2017-12-26T17:09:42.596Z,5.40
2017-12-26T17:12:53.459Z,5.30
2017-12-26T17:16:03.809Z,5.30
2017-12-26T17:19:14.129Z,5.20
2017-12-26T17:22:24.811Z,5.20
2017-12-26T17:25:35.610Z,5.20
2017-12-26T17:28:45.590Z,5.10
2017-12-26T17:31:56.405Z,5.10
2017-12-26T17:35:07.015Z,5.10
2017-12-26T17:38:18.847Z,5.00
2017-12-26T17:41:30.121Z,4.90
2017-12-26T17:44:40.184Z,4.90
2017-12-26T17:47:50.107Z,4.90
2017-12-26T17:51:00.128Z,4.90
2017-12-26T17:54:10.118Z,4.80
2017-12-26T17:57:20.268Z,4.80
2017-12-26T18:00:30.160Z,4.80
2017-12-26T18:03:40.524Z,4.80
2017-12-26T18:06:51.055Z,4.80
2017-12-26T18:10:01.853Z,4.90
2017-12-26T18:13:12.438Z,4.90
2017-12-26T18:16:23.218Z,4.90
2017-12-26T18:19:34.617Z,4.90
2017-12-26T18:22:44.736Z,4.80
2017-12-26T18:25:54.735Z,4.90
2017-12-26T18:29:06.037Z,4.90
2017-12-26T18:32:16.929Z,4.90
2017-12-26T18:35:27.518Z,4.90
2017-12-26T18:38:40.228Z,4.80
2017-12-26T18:41:51.092Z,4.70
2017-12-26T18:45:01.418Z,4.70
2017-12-26T18:48:11.518Z,4.70
2017-12-26T18:51:22.487Z,4.50
2017-12-26T18:54:32.525Z,4.50
2017-12-26T18:57:44.262Z,4.40
2017-12-26T19:00:54.676Z,4.40
2017-12-26T19:04:05.423Z,4.40
2017-12-26T19:07:16.678Z,4.40
2017-12-26T19:10:26.676Z,4.40
2017-12-26T19:13:37.500Z,4.30
2017-12-26T19:16:48.574Z,4.20
2017-12-26T19:19:59.958Z,4.20
2017-12-26T19:23:10.533Z,4.30
2017-12-26T19:26:21.528Z,4.30
2017-12-26T19:29:32.176Z,4.30
2017-12-26T19:32:42.776Z,4.20
2017-12-26T19:35:54.118Z,4.20
2017-12-26T19:39:04.883Z,4.20
2017-12-26T19:42:15.001Z,4.20
2017-12-26T19:45:24.912Z,4.20
2017-12-26T19:48:36.033Z,4.20
2017-12-26T19:51:46.251Z,4.20
2017-12-26T19:54:57.008Z,4.10
2017-12-26T19:58:07.589Z,4.10
2017-12-26T20:01:18.412Z,4.10
2017-12-26T20:04:28.703Z,4.10
2017-12-26T20:07:39.100Z,4.00
2017-12-26T20:10:49.805Z,4.00
2017-12-26T20:13:59.820Z,3.90
2017-12-26T20:17:09.677Z,4.00
2017-12-26T20:20:19.343Z,3.90
2017-12-26T20:23:29.581Z,3.90
2017-12-26T20:26:40.330Z,3.90
2017-12-26T20:29:57.226Z,3.80
2017-12-26T20:33:08.054Z,3.80
2017-12-26T20:39:45.602Z,3.80
2017-12-26T20:43:08.890Z,3.70
2017-12-26T20:49:47.804Z,3.60
2017-12-26T20:53:01.449Z,3.60
2017-12-26T20:56:11.969Z,3.50
2017-12-26T20:59:22.755Z,3.60
2017-12-26T21:02:33.535Z,3.60
2017-12-26T21:05:43.683Z,3.60
2017-12-26T21:08:54.286Z,3.60
2017-12-26T21:12:04.146Z,3.60
2017-12-26T21:15:14.272Z,3.50
2017-12-26T21:18:25.117Z,3.40
2017-12-26T21:21:35.903Z,3.40
2017-12-26T21:24:45.744Z,3.30
2017-12-26T21:27:55.551Z,3.20
2017-12-26T21:31:06.398Z,3.20
2017-12-26T21:34:17.622Z,3.10
2017-12-26T21:37:28.681Z,3.10
2017-12-26T21:40:39.725Z,3.10
2017-12-26T21:43:49.966Z,3.10
2017-12-26T21:47:00.091Z,3.20
2017-12-26T21:50:10.177Z,3.10
2017-12-26T21:53:21.782Z,3.00
2017-12-26T21:56:33.493Z,3.00
2017-12-26T21:59:44.408Z,3.10
2017-12-26T22:02:55.143Z,3.00
2017-12-26T22:06:06.265Z,3.00
2017-12-26T22:09:16.885Z,3.00
2017-12-26T22:12:27.962Z,2.90
2017-12-26T22:15:37.904Z,2.90
2017-12-26T22:18:48.732Z,3.00
2017-12-26T22:21:59.543Z,2.80
2017-12-26T22:25:09.859Z,2.80
2017-12-26T22:28:21.363Z,2.80
2017-12-26T22:31:31.341Z,2.80
2017-12-26T22:34:41.827Z,2.80
2017-12-26T22:37:53.219Z,2.80
2017-12-26T22:41:04.170Z,2.80
2017-12-26T22:44:14.315Z,2.70
2017-12-26T22:47:25.818Z,2.60
2017-12-26T22:50:36.519Z,2.60
2017-12-26T22:53:47.353Z,2.60
2017-12-26T22:56:57.714Z,2.50
2017-12-26T23:00:09.498Z,2.50
2017-12-26T23:03:20.349Z,2.40
2017-12-26T23:06:30.384Z,2.40
2017-12-26T23:09:40.861Z,2.40
2017-12-26T23:12:52.178Z,2.30
2017-12-26T23:16:07.399Z,2.30
2017-12-26T23:19:17.822Z,2.30
2017-12-26T23:22:28.418Z,2.30
2017-12-26T23:25:45.581Z,2.30
2017-12-26T23:29:01.668Z,2.30
2017-12-26T23:32:17.402Z,2.30
2017-12-26T23:35:34.050Z,2.30
2017-12-26T23:38:50.463Z,2.30
2017-12-26T23:45:44.771Z,2.20
2017-12-26T23:49:00.431Z,2.20
2017-12-26T23:52:16.034Z,2.30
2017-12-26T23:55:31.672Z,2.30
2017-12-26T23:58:47.941Z,2.20
